Time;durP1;ratioP1;P1;durP2;ratioP2;P2;SDS_P1;SDS_P2;PMS_P1;PMS_P2;Temp;Humidity;BMP_temperature;BMP_pressure;BME280_temperature;BME280_humidity;BME280_pressure;Samples;Min_cycle;Max_cycle;Signal;HPM_P1;HPM_P2
2023/02/23 00:01:16;;;;;;;;;;;12.50;86.80;;;11.27;72.55;100199.16;5009716;28;19933;-83
2023/02/23 00:03:45;;;;;;;;;;;12.50;86.90;;;11.25;72.63;100194.03;4994619;28;19964;-83
2023/02/23 00:06:13;;;;;;;;;;;12.50;86.80;;;11.24;72.52;100195.09;5004851;28;19929;-83
2023/02/23 00:08:40;;;;;;;;;;;12.50;86.80;;;11.24;72.77;100203.09;5007012;28;19987;-83
2023/02/23 00:11:10;;;;;;;;;;;12.50;86.80;;;11.22;72.68;100191.81;4987333;28;19929;-83
2023/02/23 00:13:38;;;;;;;;;;;12.50;86.90;;;11.22;72.78;100199.00;5001816;28;19929;-83
2023/02/23 00:16:06;;;;;;;;;;;12.50;86.90;;;11.22;72.48;100202.47;5008925;28;19933;-83
2023/02/23 00:18:43;;;;;;;;;;;12.50;86.90;;;11.21;72.68;100203.53;5007660;28;19926;-82
2023/02/23 00:21:17;;;;;;;;;;;12.40;86.80;;;11.20;72.77;100183.22;5003305;28;19930;-83
2023/02/23 00:23:47;;;;;;;;;;;12.50;87.10;;;11.21;72.88;100187.50;5008964;28;19936;-83
2023/02/23 00:26:14;;;;;;;;;;;12.50;87.00;;;11.20;73.15;100180.53;5009325;28;19930;-83
2023/02/23 00:28:43;;;;;;;;;;;12.50;87.00;;;11.21;72.94;100187.50;5023040;28;20086;-83
2023/02/23 00:31:10;;;;;;;;;;;12.40;86.90;;;11.22;72.93;100180.31;4997790;28;19980;-83
2023/02/23 00:33:38;;;;;;;;;;;12.50;87.00;;;11.21;72.88;100187.50;5009394;28;19925;-82
2023/02/23 00:36:07;;;;;;;;;;;12.40;86.90;;;11.23;72.79;100189.97;4984987;28;20343;-83
2023/02/23 00:38:36;;;;;;;;;;;12.50;87.00;;;11.22;72.77;100188.31;5009774;28;19968;-83
2023/02/23 00:41:07;;;;;;;;;;;12.50;87.00;;;11.18;72.81;100177.28;5006401;28;19936;-83
2023/02/23 00:43:36;;;;;;;;;;;12.50;87.10;;;11.19;73.11;100180.78;5006614;28;19936;-83
2023/02/23 00:46:07;;;;;;;;;;;12.50;87.10;;;11.19;72.92;100181.59;4986759;28;20565;-83
2023/02/23 00:48:35;;;;;;;;;;;12.50;87.20;;;11.18;73.29;100174.63;5019033;28;19984;-83
2023/02/23 00:51:03;;;;;;;;;;;12.40;87.10;;;11.17;73.05;100178.31;4990408;28;19929;-81
2023/02/23 00:53:31;;;;;;;;;;;12.40;87.10;;;11.18;73.31;100177.28;5007638;28;19988;-82
2023/02/23 00:55:59;;;;;;;;;;;12.40;87.20;;;11.17;73.32;100180.97;4992826;28;20297;-82
2023/02/23 00:58:26;;;;;;;;;;;12.40;87.20;;;11.17;73.17;100183.66;5014940;28;19930;-82
2023/02/23 01:00:54;;;;;;;;;;;12.40;87.30;;;11.16;73.14;100184.69;5005184;28;19926;-82
2023/02/23 01:03:21;;;;;;;;;;;12.40;87.30;;;11.17;73.33;100183.66;4995808;28;19930;-82
2023/02/23 01:05:49;;;;;;;;;;;12.40;87.30;;;11.15;73.42;100175.06;4984663;28;20393;-83
2023/02/23 01:08:17;;;;;;;;;;;12.50;87.40;;;11.15;73.48;100185.72;4993513;28;20027;-82
2023/02/23 01:10:51;;;;;;;;;;;12.40;87.50;;;11.15;73.57;100180.41;4994772;28;19936;-82
2023/02/23 01:13:19;;;;;;;;;;;12.40;87.40;;;11.15;73.57;100177.72;5012564;28;19930;-82
2023/02/23 01:15:47;;;;;;;;;;;12.40;87.50;;;11.14;73.51;100173.44;5011519;28;19952;-83
2023/02/23 01:18:15;;;;;;;;;;;12.40;87.50;;;11.15;73.66;100177.72;5007470;28;19937;-82
2023/02/23 01:20:43;;;;;;;;;;;12.40;87.50;;;11.17;73.66;100178.31;4995475;28;20031;-82
2023/02/23 01:23:12;;;;;;;;;;;12.40;87.50;;;11.15;73.65;100179.59;4994220;28;19984;-82
2023/02/23 01:25:40;;;;;;;;;;;12.40;87.50;;;11.14;73.73;100184.09;5001764;28;19957;-82
2023/02/23 01:28:07;;;;;;;;;;;12.40;87.70;;;11.15;73.73;100180.41;5007937;28;19943;-82
2023/02/23 01:30:39;;;;;;;;;;;12.40;87.70;;;11.17;73.80;100186.31;5004384;28;19935;-82
2023/02/23 01:33:08;;;;;;;;;;;12.40;87.70;;;11.17;73.73;100188.16;5001667;28;19973;-82
2023/02/23 01:35:35;;;;;;;;;;;12.40;87.70;;;11.16;73.84;100181.22;5011528;28;19929;-82
2023/02/23 01:38:02;;;;;;;;;;;12.40;87.70;;;11.16;73.90;100179.34;4989973;28;20321;-82
2023/02/23 01:40:29;;;;;;;;;;;12.40;87.80;;;11.16;73.78;100179.34;5012205;28;19929;-82
2023/02/23 01:42:58;;;;;;;;;;;12.40;87.70;;;11.16;74.01;100181.22;5009778;28;20310;-82
2023/02/23 01:45:33;;;;;;;;;;;12.40;87.80;;;11.16;74.00;100186.53;5006675;28;19948;-82
2023/02/23 01:48:06;;;;;;;;;;;12.40;87.80;;;11.15;74.22;100184.91;5002584;28;20533;-82
2023/02/23 01:50:42;;;;;;;;;;;12.40;87.90;;;11.15;74.07;100185.72;4990217;28;19936;-82
2023/02/23 01:53:10;;;;;;;;;;;12.40;87.80;;;11.15;74.08;100176.91;4980566;28;19926;-82
2023/02/23 01:55:37;;;;;;;;;;;12.40;87.90;;;11.15;74.11;100179.59;4991738;28;19937;-82
2023/02/23 01:58:14;;;;;;;;;;;12.40;87.90;;;11.15;74.26;100179.59;4991515;28;20040;-82
2023/02/23 02:00:43;;;;;;;;;;;12.40;87.90;;;11.15;74.11;100185.72;4998762;28;19961;-82
2023/02/23 02:03:16;;;;;;;;;;;12.40;87.90;;;11.16;74.33;100175.88;4994000;28;19929;-82
2023/02/23 02:05:44;;;;;;;;;;;12.60;87.90;;;11.14;74.23;100178.78;5010158;28;20487;-82
2023/02/23 02:08:12;;;;;;;;;;;12.40;87.90;;;11.15;74.35;100175.06;5018600;28;20321;-82
2023/02/23 02:10:39;;;;;;;;;;;12.40;87.90;;;11.15;74.25;100179.59;5008626;28;19932;-83
2023/02/23 02:13:08;;;;;;;;;;;12.40;87.90;;;11.14;74.22;100178.78;4992279;28;19929;-82
2023/02/23 02:15:40;;;;;;;;;;;12.40;87.90;;;11.14;74.04;100172.63;5005659;28;19934;-82
2023/02/23 02:18:18;;;;;;;;;;;12.40;87.90;;;11.12;74.16;100170.16;5008127;28;19937;-82
2023/02/23 02:21:10;;;;;;;;;;;12.40;87.90;;;11.13;74.44;100171.00;5010847;28;19925;-82
2023/02/23 02:24:07;;;;;;;;;;;12.40;88.00;;;11.14;74.42;100177.97;4990908;28;19929;-82
2023/02/23 02:26:44;;;;;;;;;;;12.40;88.00;;;11.13;74.40;100174.47;4992525;28;19925;-82
2023/02/23 02:29:46;;;;;;;;;;;12.40;88.00;;;11.12;74.38;100178.16;4995135;28;19940;-82
2023/02/23 02:32:29;;;;;;;;;;;12.40;88.00;;;11.11;74.24;100165.84;4992221;28;20317;-82
2023/02/23 02:35:23;;;;;;;;;;;12.40;88.00;;;11.14;74.21;100173.44;4992979;28;19933;-82
2023/02/23 02:38:17;;;;;;;;;;;12.40;88.00;;;11.13;74.14;100168.31;5010336;28;20025;-82
2023/02/23 02:40:53;;;;;;;;;;;12.30;88.00;;;11.13;74.23;100169.13;4993483;28;19926;-82
2023/02/23 02:43:25;;;;;;;;;;;12.30;87.90;;;11.11;74.09;100165.03;5011240;28;19930;-82
2023/02/23 02:45:58;;;;;;;;;;;12.30;87.90;;;11.10;74.14;100166.91;5014980;28;19936;-82
2023/02/23 02:48:33;;;;;;;;;;;12.30;87.90;;;11.11;74.13;100168.53;4989897;28;19934;-82
2023/02/23 02:51:08;;;;;;;;;;;12.30;87.90;;;11.09;73.99;100162.59;5010437;28;19976;-82
2023/02/23 02:53:42;;;;;;;;;;;12.40;87.90;;;11.08;74.05;100158.31;5007793;28;19980;-82
2023/02/23 02:56:10;;;;;;;;;;;12.30;87.90;;;11.09;74.15;100165.28;5014004;28;19930;-82
2023/02/23 02:58:42;;;;;;;;;;;12.30;87.90;;;11.09;74.10;100159.94;5013880;28;20400;-82
2023/02/23 04:19:53;;;;;;;;;;;12.20;87.60;;;10.96;73.82;100179.56;4956224;28;20625;-88
2023/02/23 04:22:21;;;;;;;;;;;12.20;87.70;;;10.96;73.70;100184.09;4954082;28;20018;-88
2023/02/23 04:24:48;;;;;;;;;;;12.20;87.70;;;10.94;73.86;100180.84;4956184;28;19941;-88
2023/02/23 04:27:16;;;;;;;;;;;12.20;87.70;;;10.94;73.95;100184.31;4955103;28;19981;-88
2023/02/23 04:29:43;;;;;;;;;;;12.30;87.80;;;10.95;73.87;100188.59;4952899;28;19930;-88
2023/02/23 04:32:13;;;;;;;;;;;12.20;87.70;;;10.97;73.94;100188.38;4957806;28;20032;-87
2023/02/23 04:34:41;;;;;;;;;;;12.30;87.80;;;10.96;73.78;100190.22;4959628;28;19934;-88
2023/02/23 04:37:08;;;;;;;;;;;12.20;87.70;;;10.96;73.99;100192.09;4990516;28;19957;-88
2023/02/23 04:39:35;;;;;;;;;;;12.20;87.70;;;10.96;73.81;100186.75;4976955;28;19936;-88
2023/02/23 04:42:02;;;;;;;;;;;12.20;87.70;;;10.94;73.98;100191.50;4977130;28;20482;-88
2023/02/23 04:44:29;;;;;;;;;;;12.20;87.70;;;10.95;74.18;100185.13;4970672;28;19930;-88
2023/02/23 04:46:57;;;;;;;;;;;12.20;87.80;;;10.96;73.92;100184.91;4960574;28;19962;-87
2023/02/23 04:49:24;;;;;;;;;;;12.20;87.80;;;10.97;73.92;100193.72;4961757;28;19937;-88
2023/02/23 04:51:52;;;;;;;;;;;12.20;87.70;;;10.96;74.19;100192.91;4968860;28;20316;-87
2023/02/23 04:54:19;;;;;;;;;;;12.20;87.90;;;10.97;74.09;100188.38;4959038;28;19931;-88
2023/02/23 04:56:46;;;;;;;;;;;12.20;87.90;;;10.97;74.10;100188.38;4965859;28;19932;-88
2023/02/23 04:59:13;;;;;;;;;;;12.20;87.90;;;10.98;74.05;100184.66;4971834;28;20384;-88
2023/02/23 05:01:40;;;;;;;;;;;12.20;87.90;;;10.99;73.90;100192.47;4939561;29;19945;-89
2023/02/23 05:04:07;;;;;;;;;;;12.20;87.80;;;10.99;74.07;100202.34;4970428;28;19938;-88
2023/02/23 05:06:34;;;;;;;;;;;12.20;87.80;;;10.97;73.88;100197.19;4964297;28;19930;-86
2023/02/23 05:09:05;;;;;;;;;;;12.20;87.90;;;10.99;74.12;100197.81;4961256;28;19946;-90
2023/02/23 05:11:32;;;;;;;;;;;12.20;87.80;;;10.97;74.07;100194.53;4974453;28;19926;-80
2023/02/23 05:13:59;;;;;;;;;;;12.20;87.90;;;10.99;73.86;100194.31;4959890;28;19934;-81
2023/02/23 05:16:26;;;;;;;;;;;12.20;87.90;;;10.99;73.95;100197.81;4952561;28;19962;-81
2023/02/23 05:18:53;;;;;;;;;;;12.20;87.90;;;10.98;73.96;100193.50;4945889;28;20049;-81
2023/02/23 05:21:21;;;;;;;;;;;12.20;87.90;;;10.99;73.77;100203.16;4971108;28;20029;-81
2023/02/23 05:23:47;;;;;;;;;;;12.20;87.90;;;10.98;74.24;100198.00;4947709;28;19930;-82
2023/02/23 05:26:16;;;;;;;;;;;12.20;87.90;;;10.98;73.88;100206.84;4961875;28;20006;-81
2023/02/23 05:28:43;;;;;;;;;;;12.20;87.90;;;10.97;73.95;100201.72;4973161;28;19936;-80
2023/02/23 05:31:11;;;;;;;;;;;12.20;87.90;;;10.97;73.98;100209.72;4953849;28;20021;-81
2023/02/23 05:33:41;;;;;;;;;;;12.20;87.90;;;10.98;74.00;100208.69;4942327;29;19935;-81
2023/02/23 05:36:10;;;;;;;;;;;12.20;87.90;;;10.98;73.98;100209.53;4959267;28;20332;-81
2023/02/23 05:38:37;;;;;;;;;;;12.20;87.90;;;10.97;74.00;100207.06;4953927;28;19927;-82
2023/02/23 05:41:06;;;;;;;;;;;12.20;87.90;;;10.98;73.85;100208.69;4954682;28;19931;-82
2023/02/23 05:43:34;;;;;;;;;;;12.20;87.90;;;10.97;73.94;100209.72;4953159;28;20387;-82
2023/02/23 05:46:01;;;;;;;;;;;12.20;87.90;;;10.97;73.81;100213.19;4951317;28;19932;-82
2023/02/23 05:48:28;;;;;;;;;;;12.20;87.90;;;10.98;73.75;100209.53;4954037;28;20054;-83
2023/02/23 05:51:00;;;;;;;;;;;12.30;87.90;;;10.97;73.54;100210.53;4940152;29;20006;-88
2023/02/23 05:53:27;;;;;;;;;;;12.20;87.70;;;10.96;73.78;100205.44;4952258;28;19926;-88
2023/02/23 05:55:54;;;;;;;;;;;12.20;87.70;;;10.93;73.71;100213.84;4947952;28;19930;-84
2023/02/23 05:58:21;;;;;;;;;;;12.40;87.90;;;10.93;73.77;100211.19;4957921;28;20387;-81
2023/02/23 06:00:50;;;;;;;;;;;12.20;87.70;;;10.89;74.17;100213.50;4962295;28;19969;-81
2023/02/23 06:03:17;;;;;;;;;;;12.20;87.70;;;10.88;74.11;100213.69;4945706;28;19926;-81
2023/02/23 06:05:49;;;;;;;;;;;12.20;87.70;;;10.89;74.08;100215.38;4956145;28;19934;-81
2023/02/23 06:08:16;;;;;;;;;;;12.20;87.80;;;10.86;74.14;100208.59;4963494;28;19930;-83
2023/02/23 06:10:43;;;;;;;;;;;12.10;87.70;;;10.87;74.19;100212.06;4952413;28;19937;-83
2023/02/23 06:13:10;;;;;;;;;;;12.20;87.80;;;10.87;74.30;100218.22;4944667;28;20419;-82
2023/02/23 06:15:37;;;;;;;;;;;12.20;87.90;;;10.87;74.18;100217.41;4951148;28;19933;-82
2023/02/23 06:18:07;;;;;;;;;;;12.20;87.90;;;10.85;74.13;100220.31;4953616;28;19985;-83
2023/02/23 06:20:35;;;;;;;;;;;12.20;87.80;;;10.85;74.25;100228.31;4956065;28;19985;-84
2023/02/23 06:23:02;;;;;;;;;;;12.20;87.90;;;10.85;74.24;100222.97;4960532;28;19930;-85
2023/02/23 06:25:28;;;;;;;;;;;12.10;87.90;;;10.87;74.28;100225.41;4965667;28;20367;-84
2023/02/23 06:27:56;;;;;;;;;;;12.10;87.90;;;10.87;74.26;100230.75;4960782;28;19931;-86
2023/02/23 06:30:23;;;;;;;;;;;12.20;87.90;;;10.87;74.20;100228.09;4953587;29;19926;-85
2023/02/23 06:32:50;;;;;;;;;;;12.20;87.90;;;10.87;74.21;100228.91;4943587;28;19966;-85
2023/02/23 06:35:23;;;;;;;;;;;12.10;87.90;;;10.86;74.32;100229.13;4939268;28;19931;-85
2023/02/23 06:37:50;;;;;;;;;;;12.10;87.90;;;10.86;74.33;100235.28;4951867;28;20327;-86
2023/02/23 06:40:17;;;;;;;;;;;12.10;87.90;;;10.88;74.27;100245.72;4953693;28;20643;-86
2023/02/23 06:42:44;;;;;;;;;;;12.10;87.90;;;10.90;74.31;100246.34;4950015;28;19933;-87
2023/02/23 06:45:12;;;;;;;;;;;12.10;87.90;;;10.93;74.05;100251.22;4953256;28;19937;-85
2023/02/23 06:47:39;;;;;;;;;;;12.10;88.00;;;10.93;74.01;100252.06;4966574;28;19930;-86
2023/02/23 06:50:07;;;;;;;;;;;12.20;87.90;;;10.95;73.96;100259.84;4972447;28;19937;-86
2023/02/23 06:52:35;;;;;;;;;;;12.10;88.00;;;10.93;74.03;100254.72;4963489;28;19930;-86
2023/02/23 06:55:02;;;;;;;;;;;12.10;88.00;;;10.92;74.00;100261.06;4953911;28;19970;-86
2023/02/23 06:57:29;;;;;;;;;;;12.10;87.90;;;10.93;74.08;100259.22;4960831;28;19941;-86
2023/02/23 06:59:56;;;;;;;;;;;12.40;88.10;;;10.93;74.20;100267.22;4960797;28;19929;-85
2023/02/23 07:02:23;;;;;;;;;;;12.10;87.90;;;10.94;74.13;100268.88;4957103;28;20032;-87
2023/02/23 07:04:50;;;;;;;;;;;12.20;87.90;;;10.94;74.01;100269.69;4963854;28;19930;-86
2023/02/23 07:07:17;;;;;;;;;;;12.20;87.90;;;10.94;74.09;100266.22;4962987;28;19926;-85
2023/02/23 07:09:46;;;;;;;;;;;12.10;87.90;;;10.94;74.04;100268.88;4968078;28;19930;-86
2023/02/23 07:12:13;;;;;;;;;;;12.10;88.00;;;10.94;74.13;100271.56;4953277;28;20414;-86
2023/02/23 07:14:40;;;;;;;;;;;12.10;88.00;;;10.94;74.18;100274.22;4961026;28;19940;-86
2023/02/23 07:17:07;;;;;;;;;;;12.10;88.00;;;10.94;74.03;100276.88;4962454;28;20017;-86
2023/02/23 07:19:34;;;;;;;;;;;12.10;88.00;;;10.94;74.03;100279.56;4986626;28;19961;-86
2023/02/23 07:22:01;;;;;;;;;;;12.10;88.00;;;10.94;74.08;100280.38;4967837;28;19931;-86
2023/02/23 07:24:28;;;;;;;;;;;12.10;88.00;;;10.94;74.27;100284.91;4970223;28;19961;-86
2023/02/23 07:26:56;;;;;;;;;;;12.10;88.10;;;10.95;74.14;100281.19;4951716;28;20405;-85
2023/02/23 07:29:24;;;;;;;;;;;12.10;88.10;;;10.96;74.12;100285.47;4934400;29;19927;-86
2023/02/23 07:31:51;;;;;;;;;;;12.10;88.10;;;10.94;74.14;100285.72;4947031;28;19930;-85
2023/02/23 07:34:18;;;;;;;;;;;12.10;88.10;;;10.94;74.14;100280.38;4965967;28;19926;-86
2023/02/23 07:36:45;;;;;;;;;;;12.10;88.30;;;10.95;74.21;100290.00;4954820;28;19930;-86
2023/02/23 07:39:12;;;;;;;;;;;12.10;88.30;;;10.94;74.47;100291.03;4961330;28;19978;-86
2023/02/23 07:41:39;;;;;;;;;;;12.10;88.40;;;10.96;74.15;100290.81;4953369;28;19935;-85
2023/02/23 07:44:18;;;;;;;;;;;12.10;88.40;;;10.93;74.41;100296.56;4965839;28;20363;-85
2023/02/23 07:46:46;;;;;;;;;;;12.10;88.40;;;10.89;74.59;100293.53;4952026;28;19931;-86
2023/02/23 07:49:13;;;;;;;;;;;12.10;88.50;;;10.91;74.68;100293.31;4951640;29;19927;-86
2023/02/23 07:51:41;;;;;;;;;;;12.10;88.70;;;10.90;74.64;100289.84;4949412;28;19926;-86
2023/02/23 07:54:08;;;;;;;;;;;12.10;88.70;;;10.87;74.63;100295.59;4949524;28;19930;-86
2023/02/23 07:56:35;;;;;;;;;;;12.10;88.70;;;10.88;74.82;100305.22;4954818;28;19930;-85
2023/02/23 07:59:03;;;;;;;;;;;12.00;88.70;;;10.89;74.85;100309.56;4950282;29;19930;-86
2023/02/23 08:01:31;;;;;;;;;;;12.10;88.80;;;10.93;74.86;100316.09;4964228;28;19934;-86
2023/02/23 08:04:01;;;;;;;;;;;12.10;88.80;;;10.88;74.69;100317.75;4951180;28;20021;-85
2023/02/23 08:06:28;;;;;;;;;;;12.10;88.90;;;10.77;75.27;100314.75;4951542;28;19930;-84
2023/02/23 08:08:55;;;;;;;;;;;12.00;89.10;;;10.82;74.88;100320.25;4952512;28;19941;-92
2023/02/23 08:11:23;;;;;;;;;;;12.00;89.10;;;10.78;74.94;100318.25;4970818;28;19935;-92
2023/02/23 08:13:50;;;;;;;;;;;12.10;89.10;;;10.63;75.20;100318.53;4954140;28;19960;-92
2023/02/23 08:16:18;;;;;;;;;;;11.90;89.10;;;10.67;75.09;100322.41;4976771;28;19930;-93
2023/02/23 08:18:46;;;;;;;;;;;11.90;89.00;;;10.68;74.99;100328.56;4953383;28;19930;-93
2023/02/23 08:21:13;;;;;;;;;;;11.90;89.10;;;10.66;75.15;100326.13;4950623;28;19927;-92
2023/02/23 08:23:41;;;;;;;;;;;11.90;89.20;;;10.70;75.02;100326.53;4957798;28;19941;-92
2023/02/23 08:26:08;;;;;;;;;;;11.90;89.10;;;10.68;74.75;100329.38;4946966;28;20049;-90
2023/02/23 08:28:35;;;;;;;;;;;11.90;89.00;;;10.72;74.89;100330.59;4961803;28;19981;-91
2023/02/23 08:31:02;;;;;;;;;;;11.90;88.90;;;10.70;74.66;100335.34;4958420;28;20029;-92
2023/02/23 08:33:30;;;;;;;;;;;11.90;88.80;;;10.74;74.67;100338.41;4949120;28;20002;-92
2023/02/23 08:36:01;;;;;;;;;;;11.90;88.90;;;10.75;74.56;100338.16;4978608;28;19981;-93
2023/02/23 08:38:28;;;;;;;;;;;12.00;88.80;;;10.78;74.36;100351.09;4958659;28;19931;-92
2023/02/23 08:40:59;;;;;;;;;;;12.00;88.70;;;10.78;74.34;100350.25;4946687;28;20399;-91
2023/02/23 08:43:26;;;;;;;;;;;12.00;88.60;;;10.77;74.38;100343.28;4966695;28;19934;-86
2023/02/23 08:45:53;;;;;;;;;;;12.10;88.70;;;10.78;74.53;100351.09;4964973;28;20457;-85
2023/02/23 08:48:23;;;;;;;;;;;11.90;88.60;;;10.74;74.34;100355.22;4972188;28;20472;-89
2023/02/23 08:50:50;;;;;;;;;;;11.90;88.80;;;10.68;75.31;100347.25;4956105;28;20029;-86
2023/02/23 08:53:19;;;;;;;;;;;11.90;89.00;;;10.71;74.89;100360.97;4950671;28;19938;-91
2023/02/23 08:55:46;;;;;;;;;;;11.90;88.90;;;10.71;74.92;100342.28;4971926;28;19930;-88
2023/02/23 08:58:13;;;;;;;;;;;11.90;89.00;;;10.74;74.77;100354.41;4969685;28;19930;-87
2023/02/23 09:00:40;;;;;;;;;;;11.90;88.90;;;10.75;74.68;100348.84;4952615;28;19993;-91
2023/02/23 09:03:07;;;;;;;;;;;12.20;89.10;;;10.76;74.71;100355.81;4948422;28;20460;-88
2023/02/23 09:05:37;;;;;;;;;;;12.00;88.90;;;10.74;75.00;100363.22;4986942;28;19926;-93
2023/02/23 09:08:04;;;;;;;;;;;11.90;89.10;;;10.76;75.15;100357.66;4965522;28;19937;-93
2023/02/23 09:10:33;;;;;;;;;;;11.90;89.30;;;10.77;75.02;100357.44;4975338;28;19934;-93
2023/02/23 09:13:00;;;;;;;;;;;11.90;89.30;;;10.76;74.75;100361.13;4953258;28;20290;-92
2023/02/23 09:15:27;;;;;;;;;;;11.90;89.30;;;10.78;74.94;100361.75;4951148;28;20450;-93
2023/02/23 09:17:54;;;;;;;;;;;12.00;89.20;;;10.80;74.94;100365.03;4950616;28;19981;-93
2023/02/23 09:20:25;;;;;;;;;;;12.00;89.20;;;10.82;74.64;100367.47;4952317;28;19930;-93
2023/02/23 09:22:54;;;;;;;;;;;12.00;89.10;;;10.83;74.80;100369.09;4955822;29;19931;-93
2023/02/23 09:25:23;;;;;;;;;;;12.00;88.90;;;10.80;74.88;100369.53;4955404;28;19926;-92
2023/02/23 09:27:55;;;;;;;;;;;12.00;89.10;;;10.79;75.07;100370.56;4970882;28;19927;-92
2023/02/23 09:30:22;;;;;;;;;;;12.00;89.10;;;10.72;75.12;100381.28;4957792;28;19940;-93
2023/02/23 09:32:50;;;;;;;;;;;12.00;89.20;;;10.77;75.20;100373.44;4956546;28;19926;-93
2023/02/23 09:35:19;;;;;;;;;;;12.00;89.20;;;10.79;75.15;100373.25;5011858;23;19930;-84
2023/02/23 09:37:47;;;;;;;;;;;12.00;89.10;;;10.79;75.05;100371.41;4951853;28;19937;-84
2023/02/23 09:40:16;;;;;;;;;;;12.00;89.10;;;10.83;75.05;100371.75;4940067;28;19937;-84
2023/02/23 09:42:49;;;;;;;;;;;12.00;89.10;;;10.87;74.91;100390.81;4961229;28;19981;-84
2023/02/23 09:45:25;;;;;;;;;;;12.00;89.10;;;10.87;74.79;100391.66;4951448;28;19984;-84
2023/02/23 09:48:01;;;;;;;;;;;12.00;89.30;;;10.80;74.96;100385.53;4951643;28;19930;-84
2023/02/23 09:50:29;;;;;;;;;;;12.00;89.10;;;10.82;75.00;100384.28;4954077;28;20127;-84
2023/02/23 09:53:00;;;;;;;;;;;12.00;89.10;;;10.83;74.73;100385.94;4931736;29;19931;-83
2023/02/23 09:55:27;;;;;;;;;;;12.00;88.90;;;10.84;74.71;100389.44;4944305;28;19962;-84
2023/02/23 09:57:56;;;;;;;;;;;12.00;89.00;;;10.85;74.69;100395.56;4949173;28;19930;-83
2023/02/23 10:00:27;;;;;;;;;;;12.00;88.90;;;10.85;74.59;100399.06;4947902;28;19930;-84
2023/02/23 10:03:06;;;;;;;;;;;12.00;88.90;;;10.86;74.56;100398.03;4953959;29;20051;-84
2023/02/23 10:05:38;;;;;;;;;;;12.00;88.90;;;10.86;74.53;100400.69;4943203;28;19930;-84
2023/02/23 10:08:08;;;;;;;;;;;12.00;88.80;;;10.84;74.50;100402.75;4951451;28;19934;-83
2023/02/23 10:10:42;;;;;;;;;;;12.00;88.70;;;10.86;74.61;100399.88;4956273;28;20306;-84
2023/02/23 10:13:16;;;;;;;;;;;12.00;88.70;;;10.83;74.52;100403.78;4971388;28;19930;-84
2023/02/23 10:15:47;;;;;;;;;;;12.00;88.90;;;10.77;74.79;100408.13;4949082;28;20034;-83
2023/02/23 10:18:22;;;;;;;;;;;12.00;88.80;;;10.80;74.62;100412.22;4962096;28;19930;-83
2023/02/23 10:20:59;;;;;;;;;;;12.00;88.90;;;10.82;74.46;100410.97;4945838;28;19937;-83
2023/02/23 10:23:29;;;;;;;;;;;12.00;88.90;;;10.82;74.72;100408.28;4952182;28;19931;-84
2023/02/23 10:25:59;;;;;;;;;;;12.00;88.90;;;10.83;74.70;100412.63;4951632;28;19936;-83
2023/02/23 10:28:28;;;;;;;;;;;12.00;88.90;;;10.76;74.68;100419.00;4947318;28;19942;-84
2023/02/23 10:30:57;;;;;;;;;;;12.00;88.90;;;10.77;74.82;100417.97;4935438;28;19933;-83
2023/02/23 10:33:30;;;;;;;;;;;11.90;89.00;;;10.81;74.65;100413.84;4943025;29;19937;-84
2023/02/23 10:36:05;;;;;;;;;;;12.00;88.90;;;10.85;74.35;100427.59;4939218;28;19927;-84
2023/02/23 10:38:32;;;;;;;;;;;12.00;88.80;;;10.77;74.58;100424.13;4950276;28;19930;-84
2023/02/23 10:41:00;;;;;;;;;;;12.00;88.90;;;10.77;74.61;100424.13;4942545;28;20314;-84
2023/02/23 10:43:27;;;;;;;;;;;11.90;88.90;;;10.80;74.60;100429.03;4949797;29;19930;-84
2023/02/23 10:45:55;;;;;;;;;;;11.90;88.90;;;10.82;74.43;100426.16;4952673;29;19931;-83
2023/02/23 10:48:24;;;;;;;;;;;12.00;88.80;;;10.82;74.45;100418.97;4943288;28;19966;-83
2023/02/23 10:50:54;;;;;;;;;;;11.90;88.70;;;10.80;74.17;100425.56;4939617;28;20292;-84
2023/02/23 10:53:23;;;;;;;;;;;11.90;88.80;;;10.77;74.33;100418.78;4943198;29;19926;-84
2023/02/23 10:56:02;;;;;;;;;;;11.90;88.70;;;10.73;74.20;100433.59;4952861;28;19926;-84
2023/02/23 10:58:29;;;;;;;;;;;11.90;88.70;;;10.75;74.22;100423.53;4954300;28;19930;-86
2023/02/23 11:00:59;;;;;;;;;;;11.90;88.70;;;10.75;74.17;100428.88;4940234;28;20017;-83
2023/02/23 11:03:29;;;;;;;;;;;11.90;88.70;;;10.73;74.11;100432.75;4938909;29;19927;-83
2023/02/23 11:05:56;;;;;;;;;;;11.90;88.70;;;10.76;74.49;100440.34;4943618;28;20041;-82
2023/02/23 11:08:28;;;;;;;;;;;11.90;88.70;;;10.77;74.11;100431.31;4954718;28;19930;-84
2023/02/23 11:11:00;;;;;;;;;;;11.90;88.70;;;10.72;74.00;100426.63;4952435;28;19935;-82
2023/02/23 11:13:31;;;;;;;;;;;11.90;88.60;;;10.68;73.92;100427.25;4948456;28;20028;-80
2023/02/23 11:16:02;;;;;;;;;;;11.90;88.50;;;10.64;74.45;100431.38;4944935;28;19985;-81
2023/02/23 11:18:29;;;;;;;;;;;11.80;88.70;;;10.67;74.18;100434.44;4955670;28;19931;-81
2023/02/23 11:20:57;;;;;;;;;;;11.90;88.70;;;10.65;74.43;100438.38;4931377;29;20383;-82
2023/02/23 11:23:27;;;;;;;;;;;11.80;88.70;;;10.68;74.08;100440.59;4949979;29;19933;-82
2023/02/23 11:25:58;;;;;;;;;;;11.80;88.70;;;10.69;74.19;100437.72;4956214;28;19938;-82
2023/02/23 11:28:29;;;;;;;;;;;11.80;88.60;;;10.74;74.01;100439.75;4950546;28;19930;-83
2023/02/23 11:30:57;;;;;;;;;;;11.90;88.70;;;10.76;73.91;100429.69;4943228;28;19937;-79
2023/02/23 11:33:34;;;;;;;;;;;11.80;88.50;;;10.74;73.84;100435.25;4942408;28;19927;-79
2023/02/23 11:36:15;;;;;;;;;;;11.90;88.50;;;10.73;73.90;100430.91;4949954;28;20004;-79
2023/02/23 11:38:43;;;;;;;;;;;11.90;88.50;;;10.71;73.41;100422.31;4949166;28;19953;-79
2023/02/23 11:41:20;;;;;;;;;;;11.90;88.20;;;10.70;73.49;100434.03;4945445;28;19930;-78
2023/02/23 11:43:48;;;;;;;;;;;11.80;88.10;;;10.68;73.69;100425.41;4940549;28;19926;-78
2023/02/23 11:46:15;;;;;;;;;;;11.90;88.50;;;10.72;73.50;100428.47;4947048;28;19930;-78
2023/02/23 11:48:49;;;;;;;;;;;11.90;88.30;;;10.70;73.51;100435.88;4937498;29;19934;-79
2023/02/23 11:51:24;;;;;;;;;;;11.90;88.40;;;10.68;73.35;100432.59;4949050;29;19933;-78
2023/02/23 11:53:51;;;;;;;;;;;11.80;88.10;;;10.68;73.33;100438.75;4945950;28;19931;-78
2023/02/23 11:56:21;;;;;;;;;;;11.80;88.30;;;10.68;73.58;100433.41;4951584;28;19926;-78
2023/02/23 11:58:49;;;;;;;;;;;11.80;88.30;;;10.66;73.64;100432.00;4951173;28;20041;-82
2023/02/23 12:01:22;;;;;;;;;;;11.80;88.30;;;10.62;73.72;100431.59;4945024;28;19930;-83
2023/02/23 12:03:53;;;;;;;;;;;11.80;88.10;;;10.46;72.78;100432.91;4948605;28;19941;-83
2023/02/23 12:06:29;;;;;;;;;;;11.70;87.70;;;10.49;72.82;100434.31;4943667;28;19937;-83
2023/02/23 12:09:01;;;;;;;;;;;11.70;87.70;;;10.53;72.93;100425.69;4947200;29;19949;-82
2023/02/23 12:11:33;;;;;;;;;;;11.70;87.90;;;10.55;72.50;100428.16;4951211;29;19965;-82
2023/02/23 12:14:04;;;;;;;;;;;11.70;87.70;;;10.54;73.02;100421.16;4948144;28;19953;-83
2023/02/23 12:16:34;;;;;;;;;;;11.70;88.00;;;10.54;73.20;100418.50;4951132;28;19930;-82
2023/02/23 12:19:07;;;;;;;;;;;11.70;88.00;;;10.55;73.05;100415.63;4954169;28;19964;-82
2023/02/23 12:21:38;;;;;;;;;;;11.70;87.90;;;10.59;72.79;100413.38;4950867;29;20397;-82
2023/02/23 12:24:18;;;;;;;;;;;11.80;87.80;;;10.62;72.85;100414.78;4950301;28;19933;-82
2023/02/23 12:26:50;;;;;;;;;;;11.80;87.80;;;10.62;72.97;100410.25;4947379;28;19937;-82
2023/02/23 12:29:23;;;;;;;;;;;11.80;87.90;;;10.63;73.13;100411.88;4946749;28;20052;-82
2023/02/23 12:31:52;;;;;;;;;;;11.80;87.90;;;10.58;73.76;100417.84;4934340;28;20318;-82
2023/02/23 12:34:24;;;;;;;;;;;11.80;88.20;;;10.59;73.54;100421.38;4933400;28;19931;-83
2023/02/23 12:36:57;;;;;;;;;;;11.80;88.00;;;10.62;73.36;100426.25;4944346;29;20048;-82
2023/02/23 12:39:29;;;;;;;;;;;11.80;88.00;;;10.58;73.49;100431.19;4948761;29;20395;-82